Lincoln Airport
KLNK : rendu visible

Aérodrome :











RETROUVEZ-NOUS SUR...

 
LOGIN :

S'inscrire | Disclaimer

   EN    FR    IT 

 









Légende :    VFR   VFR Marginal   IFR   IFR Intensif   IFR Très Intensif
Visi : 
Plafond : 
>= 8 km
>= 3000ft
5 à 8 km
1000 à 3000 ft
1500m à 5 km
500 à 1000 ft
800 à 1500m
200 à 500 ft
< 800m
< 200 ft
Symboles :   Orages  Brouillard  Fortes neiges  Fortes précipitations  Vent > 20 kt






- Altitude de l'aérodrome : 1219 ft
- Code IATA : LNK


KLNK - Lincoln

DERNIER METAR :
  • 250154Z 00000KT 10SM CLR 19/16 A2985 RMK AO2 SLP100 T01890156

METARs EXPIRÉS :
  • 250054Z 08007KT 10SM SCT021 19/16 A2983 RMK AO2 SLP095 T01940161
  • 242354Z 10005KT 10SM FEW021 SCT100 21/17 A2983 RMK AO2 SLP094 60000 T02060167 10256 20200 51011
  • 242342Z 07006KT 10SM FEW095 21/17 A2983 RMK AO2 T02060167
  • 242327Z 10005KT 10SM VCTS CLR 21/17 A2983 RMK AO2 T02060172

TAF KLNK
Valide du 25 à 00h jusqu'au 26 à 00h UTC


242323Z 2500/2524 07005KT P6SM VCTS BKN040CB
TEMPO 2500/2501 3SM -TSRA BKN035CB
FM250300 04005KT P6SM BKN040
FM250900 01006KT 6SM -SHRA BR OVC025
FM251100 01007KT 6SM -SHRA BR OVC008
FM251800 36004KT 6SM -SHRA BR OVC015
FIR KZMP / Amérique du Nord



MET'MAP, la Météo Aéronautique d'un coup d'oeil ! - Copyright ORBIFLY Décembre 2007 - Disclaimer

ORBIFLY MET'MAP TEAM :

Programmation & Développement : Alexandra Zaïnal
Sur une idée originale de : Baudouin d'Aumeries
Assistance à la programmation : Marc-Olivier Méhu
Soutien technique & logistique : Manuel Goepfert

Contact : metmap@orbifly.com




SOURCES & CREDITS :

   NOAA       Earth
Advisory